Terminal Aerodrome Forecast
Issued by NWS

Home | Current Version | Previous Version | Text Only | Print | Product List | Glossary On
Versions: 1 2 3 4 5 6 7 8 9 10 11 12 13 14 15 16 17 18 19 20 21 22 23 24 25 26 27 28 29 30 31 32 33 34 35 36 37 38 39 40 41 42 43 44 45 46
000
FTUS45 KGJT 230601 AAA
TAFASE
TAF AMD
KASE 230601Z 2306/2406 VRB05KT P6SM VCSH SCT020 BKN030 OVC040
      TEMPO 2306/2308 02008G16KT 4SM RA BR FEW008 BKN015 OVC020
     FM230900 22004KT P6SM SCT050
     FM231400 35007KT P6SM FEW150
     FM240300 20007KT P6SM FEW200=

USA.gov is the U.S. government's official web portal to all federal, state and local government web resources and services.